createdAt,value
2022-08-24T00:00:38.032Z,99572.69
2022-08-24T00:03:13.234Z,99568.38
2022-08-24T00:05:45.051Z,99566.50
2022-08-24T00:08:19.037Z,99565.47
2022-08-24T00:10:50.808Z,99564.88
2022-08-24T00:13:22.368Z,99564.75
2022-08-24T00:15:58.192Z,99566.81
2022-08-24T00:18:31.545Z,99566.81
2022-08-24T00:21:03.978Z,99561.09
2022-08-24T00:23:36.275Z,99561.09
2022-08-24T00:26:08.356Z,99558.63
2022-08-24T00:28:42.750Z,99554.34
2022-08-24T00:31:14.546Z,99549.19
2022-08-24T00:33:49.097Z,99561.19
2022-08-24T00:36:21.971Z,99556.66
2022-08-24T00:38:53.836Z,99548.59
2022-08-24T00:41:25.581Z,99546.94
2022-08-24T00:44:01.701Z,99543.44
2022-08-24T00:46:59.692Z,99552.09
2022-08-24T00:50:00.529Z,99549.41
2022-08-24T00:52:47.209Z,99556.66
2022-08-24T00:55:26.431Z,99557.25
2022-08-24T00:58:05.095Z,99556.22
2022-08-24T01:00:45.502Z,99549.53
2022-08-24T01:03:20.199Z,99550.84
2022-08-24T01:05:52.451Z,99558.63
2022-08-24T01:08:24.950Z,99560.28
2022-08-24T01:11:00.888Z,99558.41
2022-08-24T01:13:33.305Z,99553.06
2022-08-24T01:16:08.128Z,99560.50
2022-08-24T01:18:49.783Z,99555.38
2022-08-24T01:21:43.293Z,99551.41
2022-08-24T01:24:15.312Z,99553.88
2022-08-24T01:26:49.823Z,99551.41
2022-08-24T01:29:29.085Z,99545.91
2022-08-24T01:32:02.950Z,99555.00
2022-08-24T01:34:34.795Z,99559.56
2022-08-24T01:37:09.711Z,99550.94
2022-08-24T01:39:44.769Z,99546.59
2022-08-24T01:42:17.038Z,99550.53
2022-08-24T01:44:48.872Z,99549.72
2022-08-24T01:47:20.948Z,99559.88
2022-08-24T01:49:52.644Z,99548.91
2022-08-24T01:52:38.870Z,99554.88
2022-08-24T01:55:19.060Z,99551.38
2022-08-24T01:57:57.037Z,99552.41
2022-08-24T02:00:29.893Z,99552.66
2022-08-24T02:03:02.899Z,99556.75
2022-08-24T02:05:36.410Z,99560.47
2022-08-24T02:08:08.204Z,99562.94
2022-08-24T02:10:40.109Z,99571.81
2022-08-24T02:13:11.797Z,99571.81
2022-08-24T02:15:44.152Z,99568.28
2022-08-24T02:18:20.036Z,99563.75
2022-08-24T02:20:52.088Z,99562.94
2022-08-24T02:23:25.817Z,99558.38
2022-08-24T02:25:58.109Z,99564.56
2022-08-24T02:28:30.184Z,99568.06
2022-08-24T02:31:05.918Z,99571.81
2022-08-24T02:33:39.066Z,99567.13
2022-08-24T02:36:25.350Z,99572.47
2022-08-24T02:39:01.272Z,99569.81
2022-08-24T02:41:32.893Z,99574.00
2022-08-24T02:44:06.223Z,99576.28
2022-08-24T02:46:38.871Z,99573.59
2022-08-24T02:49:12.606Z,99577.72
2022-08-24T02:51:46.922Z,99575.25
2022-08-24T02:54:22.195Z,99577.72
2022-08-24T02:56:56.639Z,99580.41
2022-08-24T02:59:29.192Z,99573.19
2022-08-24T03:02:01.033Z,99575.03
2022-08-24T03:04:32.739Z,99575.38
2022-08-24T03:07:06.166Z,99580.31
2022-08-24T03:09:37.861Z,99574.13
2022-08-24T03:12:09.585Z,99577.47
2022-08-24T03:14:42.322Z,99571.53
2022-08-24T03:17:13.977Z,99574.00
2022-08-24T03:19:45.620Z,99571.88
2022-08-24T03:22:17.331Z,99574.56
2022-08-24T03:24:52.924Z,99576.44
2022-08-24T03:27:25.177Z,99578.28
2022-08-24T03:29:57.593Z,99577.25
2022-08-24T03:32:29.742Z,99568.38
2022-08-24T03:35:02.317Z,99572.47
2022-08-24T03:37:34.170Z,99586.47
2022-08-24T03:40:22.189Z,99581.94
2022-08-24T03:42:55.524Z,99572.84
2022-08-24T03:45:28.319Z,99577.16
2022-08-24T03:48:02.588Z,99581.09
2022-08-24T03:50:35.280Z,99578.22
2022-08-24T03:53:07.324Z,99581.94
2022-08-24T03:55:39.084Z,99578.44
2022-08-24T03:58:10.952Z,99589.97
2022-08-24T04:00:44.506Z,99583.78
2022-08-24T04:03:18.746Z,99597.47
2022-08-24T04:05:50.479Z,99590.44
2022-08-24T04:08:24.357Z,99590.31
2022-08-24T04:10:56.068Z,99593.69
2022-08-24T04:13:33.534Z,99593.44
2022-08-24T04:16:10.756Z,99591.34
2022-08-24T04:18:44.190Z,99595.47
2022-08-24T04:21:23.013Z,99594.19
2022-08-24T04:23:55.984Z,99598.94
2022-08-24T04:26:44.571Z,99594.19
2022-08-24T04:29:19.505Z,99599.69
2022-08-24T04:31:56.162Z,99608.56
2022-08-24T04:34:28.870Z,99609.97
2022-08-24T04:37:03.020Z,99606.81
2022-08-24T04:39:34.997Z,99608.56
2022-08-24T04:42:15.685Z,99601.78
2022-08-24T04:44:47.808Z,99607.50
2022-08-24T04:47:19.952Z,99611.16
2022-08-24T04:49:52.727Z,99611.50
2022-08-24T04:52:24.680Z,99610.25
2022-08-24T04:54:57.454Z,99603.63
2022-08-24T04:57:32.772Z,99611.19
2022-08-24T05:00:06.514Z,99618.44
2022-08-24T05:02:44.863Z,99630.47
2022-08-24T05:05:17.881Z,99620.28
2022-08-24T05:07:56.032Z,99628.72
2022-08-24T05:10:33.671Z,99628.72
2022-08-24T05:13:07.440Z,99634.94
2022-08-24T05:15:46.348Z,99633.41
2022-08-24T05:18:18.205Z,99628.41
2022-08-24T05:20:50.069Z,99620.13
2022-08-24T05:23:23.176Z,99625.50
2022-08-24T05:26:11.408Z,99626.19
2022-08-24T05:28:43.644Z,99627.44
2022-08-24T05:31:21.684Z,99628.47
2022-08-24T05:33:53.785Z,99626.63
2022-08-24T05:36:32.166Z,99623.94
2022-08-24T05:39:11.139Z,99628.03
2022-08-24T05:41:46.285Z,99633.63
2022-08-24T05:44:27.879Z,99627.66
2022-08-24T05:47:03.361Z,99635.81
2022-08-24T05:49:41.598Z,99632.53
2022-08-24T05:52:14.464Z,99634.75
2022-08-24T05:54:46.215Z,99639.91
2022-08-24T05:57:24.352Z,99641.09
2022-08-24T06:00:17.484Z,99640.44
2022-08-24T06:02:53.420Z,99645.72
2022-08-24T06:05:26.709Z,99647.31
2022-08-24T06:07:58.313Z,99640.91
2022-08-24T06:10:36.670Z,99633.91
2022-08-24T06:13:09.720Z,99644.88
2022-08-24T06:15:42.757Z,99641.47
2022-08-24T06:18:17.656Z,99640.03
2022-08-24T06:20:49.498Z,99637.59
2022-08-24T06:23:21.954Z,99643.28
2022-08-24T06:26:23.265Z,99639.03
2022-08-24T06:28:55.358Z,99631.66
2022-08-24T06:31:28.081Z,99634.56
2022-08-24T06:34:01.221Z,99639.78
2022-08-24T06:36:34.021Z,99634.91
2022-08-24T06:39:06.460Z,99636.75
2022-08-24T06:41:43.796Z,99634.91
2022-08-24T06:44:16.819Z,99645.16
2022-08-24T06:46:56.292Z,99642.84
2022-08-24T06:49:28.053Z,99641.44
2022-08-24T06:52:00.023Z,99652.53
2022-08-24T06:54:32.485Z,99645.91
2022-08-24T06:57:05.500Z,99651.63
2022-08-24T06:59:38.129Z,99646.41
2022-08-24T07:02:10.391Z,99642.25
2022-08-24T07:04:43.113Z,99645.97
2022-08-24T07:07:20.869Z,99645.28
2022-08-24T07:09:52.774Z,99654.50
2022-08-24T07:12:24.932Z,99652.00
2022-08-24T07:14:57.161Z,99651.31
2022-08-24T07:17:29.508Z,99657.25
2022-08-24T07:20:05.136Z,99661.22
2022-08-24T07:23:07.882Z,99655.63
2022-08-24T07:25:40.841Z,99658.66
2022-08-24T07:28:14.577Z,99659.84
2022-08-24T07:30:48.300Z,99668.63
2022-08-24T07:33:20.591Z,99660.13
2022-08-24T07:35:52.249Z,99670.63
2022-08-24T07:38:28.251Z,99668.09
2022-08-24T07:41:38.198Z,99673.81
2022-08-24T07:43:53.301Z,99671.03
2022-08-24T07:46:25.124Z,99673.28
2022-08-24T07:49:10.935Z,99675.31
2022-08-24T07:51:46.694Z,99680.00
2022-08-24T07:54:20.729Z,99681.75
2022-08-24T07:56:56.440Z,99681.50
2022-08-24T07:59:28.074Z,99694.50
2022-08-24T08:02:01.286Z,99698.47
2022-08-24T08:04:33.131Z,99690.09
2022-08-24T08:07:07.373Z,99690.81
2022-08-24T08:09:40.866Z,99692.78
2022-08-24T08:12:15.393Z,99697.25
2022-08-24T08:14:58.034Z,99694.06
2022-08-24T08:17:29.721Z,99696.09
2022-08-24T08:20:02.130Z,99696.66
2022-08-24T08:22:53.398Z,99701.47
2022-08-24T08:25:57.664Z,99695.91
2022-08-24T08:28:42.659Z,99699.88
2022-08-24T08:31:14.706Z,99701.38
2022-08-24T08:33:46.969Z,99706.19
2022-08-24T08:36:21.317Z,99707.94
2022-08-24T08:38:56.378Z,99708.88
2022-08-24T08:41:58.578Z,99706.06
2022-08-24T08:44:53.356Z,99715.06
2022-08-24T08:47:57.744Z,99709.19
2022-08-24T08:50:56.816Z,99704.28
2022-08-24T08:53:54.749Z,99703.09
2022-08-24T08:56:34.935Z,99700.94
2022-08-24T08:59:35.890Z,99701.53
2022-08-24T09:02:29.273Z,99695.38
2022-08-24T09:05:27.117Z,99693.44
2022-08-24T09:08:09.247Z,99696.91
2022-08-24T09:11:01.869Z,99696.50
2022-08-24T09:14:03.255Z,99697.66
2022-08-24T09:17:00.694Z,99698.97
2022-08-24T09:20:05.356Z,99703.19
2022-08-24T09:22:43.491Z,99702.56
2022-08-24T09:25:36.056Z,99704.00
2022-08-24T09:28:36.036Z,99693.38
2022-08-24T09:34:17.576Z,99698.44
2022-08-24T09:37:26.134Z,99700.59
2022-08-24T09:40:04.511Z,99702.94
2022-08-24T09:43:17.019Z,99694.00
2022-08-24T09:46:06.889Z,99689.97
2022-08-24T09:49:07.187Z,99692.22
2022-08-24T09:52:09.266Z,99689.31
2022-08-24T09:55:14.965Z,99686.88
2022-08-24T09:58:24.121Z,99685.16
2022-08-24T10:01:12.336Z,99689.19
2022-08-24T10:04:08.418Z,99681.97
2022-08-24T10:07:01.695Z,99681.97
2022-08-24T10:10:02.422Z,99680.59
2022-08-24T10:12:45.428Z,99688.38
2022-08-24T10:15:38.414Z,99693.38
2022-08-24T10:18:33.450Z,99685.09
2022-08-24T10:21:25.557Z,99688.00
2022-08-24T10:24:33.413Z,99687.97
2022-08-24T10:27:32.488Z,99682.84
2022-08-24T10:30:36.372Z,99689.53
2022-08-24T10:33:33.396Z,99684.13
2022-08-24T10:36:21.151Z,99679.47
2022-08-24T10:39:43.242Z,99672.28
2022-08-24T10:42:45.953Z,99666.16
2022-08-24T10:45:49.999Z,99662.81
2022-08-24T10:48:33.235Z,99664.94
2022-08-24T10:51:25.161Z,99661.53
2022-08-24T10:53:57.374Z,99659.09
2022-08-24T10:56:36.017Z,99663.19
2022-08-24T10:59:29.804Z,99668.47
2022-08-24T11:02:12.889Z,99672.69
2022-08-24T11:04:56.412Z,99675.03
2022-08-24T11:07:28.745Z,99671.50
2022-08-24T11:10:06.560Z,99671.09
2022-08-24T11:12:45.002Z,99664.50
2022-08-24T11:15:24.041Z,99668.31
2022-08-24T11:17:58.119Z,99670.88
2022-08-24T11:20:34.437Z,99666.53
2022-08-24T11:23:10.238Z,99665.81
2022-08-24T11:26:02.827Z,99669.09
2022-08-24T11:28:46.788Z,99666.09
2022-08-24T11:31:47.473Z,99667.72
2022-08-24T11:34:37.937Z,99666.06
2022-08-24T11:37:15.802Z,99667.13
2022-08-24T11:39:47.558Z,99670.34
2022-08-24T11:42:29.632Z,99663.59
2022-08-24T11:45:14.993Z,99670.34
2022-08-24T11:48:01.945Z,99660.91
2022-08-24T11:50:48.685Z,99666.88
2022-08-24T11:54:00.326Z,99663.66
2022-08-24T11:56:45.849Z,99673.44
2022-08-24T11:59:35.682Z,99666.38
2022-08-24T12:02:14.467Z,99663.13
2022-08-24T12:05:14.328Z,99661.25
2022-08-24T12:07:56.657Z,99663.69
2022-08-24T12:11:05.673Z,99649.03
2022-08-24T12:14:00.941Z,99655.53
2022-08-24T12:16:51.898Z,99653.31
2022-08-24T12:19:34.109Z,99652.53
2022-08-24T12:22:09.796Z,99653.59
2022-08-24T12:24:45.538Z,99653.03
2022-08-24T12:27:32.369Z,99648.69
2022-08-24T12:30:06.512Z,99641.72
2022-08-24T12:33:03.586Z,99636.53
2022-08-24T12:35:44.134Z,99633.34
2022-08-24T12:38:38.719Z,99631.84
2022-08-24T12:41:19.582Z,99630.09
2022-08-24T12:44:25.462Z,99626.19
2022-08-24T12:46:57.364Z,99620.97
2022-08-24T12:49:46.156Z,99628.19
2022-08-24T12:52:55.771Z,99640.41
2022-08-24T12:55:55.165Z,99623.00
2022-08-24T12:59:00.453Z,99625.09
2022-08-24T13:01:39.842Z,99616.97
2022-08-24T13:04:33.079Z,99623.03
2022-08-24T13:07:10.742Z,99617.75
2022-08-24T13:09:46.241Z,99621.97
2022-08-24T13:12:49.525Z,99622.25
2022-08-24T13:15:24.569Z,99618.13
2022-08-24T13:18:21.056Z,99622.31
2022-08-24T13:20:55.493Z,99621.22
2022-08-24T13:23:27.397Z,99623.69
2022-08-24T13:26:23.179Z,99622.09
2022-08-24T13:28:57.156Z,99616.03
2022-08-24T13:31:42.242Z,99623.56
2022-08-24T13:34:14.706Z,99619.25
2022-08-24T13:37:18.689Z,99622.09
2022-08-24T13:40:14.049Z,99625.59
2022-08-24T13:43:16.197Z,99622.09
2022-08-24T13:46:13.021Z,99623.69
2022-08-24T13:48:54.419Z,99624.53
2022-08-24T13:51:45.408Z,99619.69
2022-08-24T13:54:32.590Z,99612.44
2022-08-24T13:57:32.775Z,99610.00
2022-08-24T14:00:17.923Z,99613.78
2022-08-24T14:03:26.730Z,99620.00
2022-08-24T14:06:17.005Z,99617.41
2022-08-24T14:09:02.689Z,99614.72
2022-08-24T14:11:46.019Z,99612.53
2022-08-24T14:14:36.077Z,99612.91
2022-08-24T14:17:40.238Z,99607.97
2022-08-24T14:20:33.587Z,99606.38
2022-08-24T14:23:31.088Z,99609.66
2022-08-24T14:26:33.492Z,99608.56
2022-08-24T14:29:19.851Z,99603.09
2022-08-24T14:32:11.843Z,99602.06
2022-08-24T14:35:15.936Z,99604.78
2022-08-24T14:37:56.926Z,99597.47
2022-08-24T14:40:42.791Z,99603.16
2022-08-24T14:43:30.056Z,99602.84
2022-08-24T14:46:33.831Z,99596.00
2022-08-24T14:49:35.993Z,99591.69
2022-08-24T14:52:23.624Z,99603.09
2022-08-24T14:55:20.437Z,99602.06
2022-08-24T14:58:25.466Z,99597.44
2022-08-24T15:01:10.001Z,99596.91
2022-08-24T15:04:12.205Z,99596.38
2022-08-24T15:06:53.772Z,99594.22
2022-08-24T15:09:35.568Z,99596.84
2022-08-24T15:12:23.177Z,99590.88
2022-08-24T15:15:02.072Z,99594.38
2022-08-24T15:18:11.637Z,99599.00
2022-08-24T15:21:18.106Z,99593.28
2022-08-24T15:24:15.655Z,99593.56
2022-08-24T15:27:05.859Z,99585.13
2022-08-24T15:29:56.937Z,99584.31
2022-08-24T15:32:48.910Z,99587.56
2022-08-24T15:35:32.673Z,99581.06
2022-08-24T15:38:25.587Z,99587.56
2022-08-24T15:41:19.194Z,99583.75
2022-08-24T15:43:56.797Z,99583.19
2022-08-24T15:46:38.179Z,99585.66
2022-08-24T15:49:28.750Z,99589.72
2022-08-24T15:52:30.068Z,99578.63
2022-08-24T15:55:04.365Z,99579.44
2022-08-24T15:57:41.513Z,99577.53
2022-08-24T16:00:38.189Z,99576.72
2022-08-24T16:03:22.210Z,99563.41
2022-08-24T16:05:56.721Z,99562.53
2022-08-24T16:08:57.143Z,99559.00
2022-08-24T16:11:38.357Z,99557.59
2022-08-24T16:14:35.737Z,99557.03
2022-08-24T16:17:43.015Z,99558.94
2022-08-24T16:20:35.421Z,99553.75
2022-08-24T16:23:13.499Z,99551.28
2022-08-24T16:25:50.555Z,99550.44
2022-08-24T16:28:22.762Z,99554.50
2022-08-24T16:31:07.362Z,99554.75
2022-08-24T16:33:47.640Z,99556.63
2022-08-24T16:36:20.410Z,99562.59
2022-08-24T16:38:52.047Z,99563.91
2022-08-24T16:41:24.890Z,99567.69
2022-08-24T16:43:56.488Z,99569.22
2022-08-24T16:46:28.192Z,99578.09
2022-08-24T16:48:59.928Z,99567.78
2022-08-24T16:51:34.677Z,99565.34
2022-08-24T16:54:10.470Z,99572.13
2022-08-24T16:56:43.518Z,99568.03
2022-08-24T16:59:20.065Z,99569.59
2022-08-24T17:01:51.712Z,99568.00
2022-08-24T17:04:23.493Z,99561.81
2022-08-24T17:06:55.594Z,99569.41
2022-08-24T17:09:27.337Z,99567.47
2022-08-24T17:11:58.919Z,99571.22
2022-08-24T17:14:33.199Z,99573.34
2022-08-24T17:17:07.646Z,99581.97
2022-08-24T17:19:40.381Z,99581.41
2022-08-24T17:22:16.554Z,99584.38
2022-08-24T17:24:48.980Z,99585.44
2022-08-24T17:27:28.842Z,99589.16
2022-08-24T17:30:05.255Z,99591.81
2022-08-24T17:32:37.281Z,99587.47
2022-08-24T17:35:09.349Z,99591.81
2022-08-24T17:37:41.581Z,99582.31
2022-08-24T17:40:17.931Z,99582.88
2022-08-24T17:42:51.664Z,99585.00
2022-08-24T17:45:23.971Z,99585.53
2022-08-24T17:47:55.645Z,99587.94
2022-08-24T17:50:28.607Z,99591.16
2022-08-24T17:53:00.590Z,99591.88
2022-08-24T17:55:32.391Z,99598.88
2022-08-24T17:58:07.187Z,99597.75
2022-08-24T18:00:39.108Z,99599.59
2022-08-24T18:03:16.346Z,99605.75
2022-08-24T18:05:48.366Z,99592.69
2022-08-24T18:08:19.934Z,99591.00
2022-08-24T18:10:53.614Z,99596.84
2022-08-24T18:13:25.172Z,99600.06
2022-08-24T18:15:56.771Z,99597.31
2022-08-24T18:18:31.065Z,99610.78
2022-08-24T18:21:02.651Z,99611.78
2022-08-24T18:23:34.823Z,99616.28
2022-08-24T18:26:21.460Z,99614.56
2022-08-24T18:29:11.111Z,99619.09
2022-08-24T18:31:43.941Z,99624.66
2022-08-24T18:34:19.455Z,99626.22
2022-08-24T18:36:52.143Z,99626.97
2022-08-24T18:39:24.028Z,99637.09
2022-08-24T18:42:00.311Z,99637.03
2022-08-24T18:44:32.083Z,99635.09
2022-08-24T18:47:03.854Z,99641.22
2022-08-24T18:49:35.858Z,99649.25
2022-08-24T18:52:09.910Z,99641.31
2022-08-24T18:54:47.490Z,99656.94
2022-08-24T18:57:20.001Z,99650.97
2022-08-24T18:59:51.671Z,99646.31
2022-08-24T19:02:30.385Z,99655.97
2022-08-24T19:05:12.724Z,99649.88
2022-08-24T19:07:47.935Z,99642.19
2022-08-24T19:10:25.838Z,99642.91
2022-08-24T19:13:02.055Z,99653.63
2022-08-24T19:15:39.908Z,99654.34
2022-08-24T19:18:12.397Z,99654.28
2022-08-24T19:20:49.263Z,99658.75
2022-08-24T19:23:34.233Z,99659.47
2022-08-24T19:26:06.287Z,99670.16
2022-08-24T19:28:38.083Z,99669.00
2022-08-24T19:31:12.958Z,99657.31
2022-08-24T19:33:46.725Z,99662.63
2022-08-24T19:36:22.345Z,99659.56
2022-08-24T19:38:54.199Z,99664.84
2022-08-24T19:41:36.432Z,99654.19
2022-08-24T19:44:27.878Z,99653.88
2022-08-24T19:46:59.722Z,99655.66
2022-08-24T19:49:33.177Z,99646.16
2022-08-24T19:52:04.802Z,99643.38
2022-08-24T19:54:39.558Z,99647.59
2022-08-24T19:57:35.936Z,99642.94
2022-08-24T20:00:17.085Z,99637.19
2022-08-24T20:02:50.978Z,99646.00
2022-08-24T20:05:25.291Z,99642.97
2022-08-24T20:07:57.893Z,99640.75
2022-08-24T20:10:31.206Z,99637.72
2022-08-24T20:13:03.330Z,99643.22
2022-08-24T20:15:35.243Z,99638.31
2022-08-24T20:18:07.820Z,99643.34
2022-08-24T20:20:39.446Z,99641.94
2022-08-24T20:23:13.814Z,99643.81
2022-08-24T20:25:46.265Z,99640.19
2022-08-24T20:28:29.260Z,99650.63
2022-08-24T20:31:01.826Z,99644.63
2022-08-24T20:33:34.085Z,99647.59
2022-08-24T20:36:07.150Z,99648.84
2022-08-24T20:38:39.724Z,99652.81
2022-08-24T20:41:13.974Z,99652.25
2022-08-24T20:43:49.052Z,99652.69
2022-08-24T20:46:21.031Z,99651.31
2022-08-24T20:48:55.554Z,99650.94
2022-08-24T20:51:27.805Z,99663.22
2022-08-24T20:54:00.239Z,99663.72
2022-08-24T20:56:35.316Z,99663.09
2022-08-24T20:59:09.747Z,99662.28
2022-08-24T21:01:42.903Z,99663.56
2022-08-24T21:04:14.603Z,99661.13
2022-08-24T21:06:46.260Z,99657.03
2022-08-24T21:09:22.953Z,99653.16
2022-08-24T21:11:54.600Z,99655.75
2022-08-24T21:14:26.290Z,99649.75
2022-08-24T21:16:58.626Z,99650.00
2022-08-24T21:19:31.265Z,99653.72
2022-08-24T21:22:03.886Z,99655.47
2022-08-24T21:24:35.505Z,99655.13
2022-08-24T21:27:08.359Z,99662.84
2022-08-24T21:29:42.719Z,99660.59
2022-08-24T21:32:32.915Z,99663.78
2022-08-24T21:35:04.877Z,99671.22
2022-08-24T21:37:37.521Z,99673.56
2022-08-24T21:40:09.670Z,99677.53
2022-08-24T21:42:41.321Z,99680.09
2022-08-24T21:45:12.926Z,99681.56
2022-08-24T21:47:46.068Z,99672.91
2022-08-24T21:50:18.205Z,99675.81
2022-08-24T21:52:53.475Z,99676.50
2022-08-24T21:55:26.974Z,99669.50
2022-08-24T21:57:58.580Z,99675.91
2022-08-24T22:00:30.224Z,99674.03
2022-08-24T22:03:05.897Z,99676.94
2022-08-24T22:05:37.860Z,99675.34
2022-08-24T22:08:09.447Z,99666.69
2022-08-24T22:10:41.591Z,99674.13
2022-08-24T22:13:13.245Z,99665.50
2022-08-24T22:15:44.877Z,99663.47
2022-08-24T22:18:16.628Z,99669.09
2022-08-24T22:20:48.257Z,99668.72
2022-08-24T22:23:19.908Z,99663.59
2022-08-24T22:25:53.417Z,99661.56
2022-08-24T22:28:25.053Z,99666.59
2022-08-24T22:30:56.837Z,99652.22
2022-08-24T22:33:29.105Z,99648.09
2022-08-24T22:36:00.731Z,99646.91
2022-08-24T22:38:32.309Z,99649.00
2022-08-24T22:41:03.970Z,99645.97
2022-08-24T22:43:54.243Z,99648.28
2022-08-24T22:46:26.281Z,99640.47
2022-08-24T22:48:59.378Z,99649.56
2022-08-24T22:51:31.245Z,99641.13
2022-08-24T22:54:03.168Z,99641.34
2022-08-24T22:56:38.529Z,99632.69
2022-08-24T22:59:18.328Z,99632.34
2022-08-24T23:01:52.329Z,99640.16
2022-08-24T23:04:27.867Z,99627.06
2022-08-24T23:07:00.256Z,99638.00
2022-08-24T23:09:44.816Z,99632.03
2022-08-24T23:12:20.203Z,99617.84
2022-08-24T23:14:53.076Z,99627.94
2022-08-24T23:17:24.743Z,99623.00
2022-08-24T23:20:05.817Z,99631.50
2022-08-24T23:22:40.434Z,99622.03
2022-08-24T23:25:13.236Z,99617.94
2022-08-24T23:27:48.042Z,99621.06
2022-08-24T23:30:22.206Z,99618.63
2022-08-24T23:32:53.761Z,99617.06
2022-08-24T23:35:25.459Z,99622.03
2022-08-24T23:37:57.580Z,99623.09
2022-08-24T23:40:29.196Z,99628.22
2022-08-24T23:43:00.765Z,99629.09
2022-08-24T23:45:32.409Z,99616.97
2022-08-24T23:48:04.356Z,99623.38
2022-08-24T23:50:36.121Z,99618.00
2022-08-24T23:53:07.679Z,99617.19
2022-08-24T23:55:39.304Z,99618.47
2022-08-24T23:58:10.885Z,99616.00
